Terminal Aerodrome Forecast
Issued by NWS

Home | Current Version | Previous Version | Text Only | Print | Product List | Glossary On
Versions: 1 2 3 4 5 6 7 8 9 10 11
421
FTUS43 KILX 260535
TAFBMI
TAF
KBMI 260535Z 2606/2706 17013KT P6SM SCT080 BKN200
     FM261300 18014KT P6SM VCSH OVC040
     FM261800 20015KT P6SM SHRA VCTS OVC025CB
     FM262100 21013KT 4SM SHRA VCTS OVC015CB
     FM270300 25008KT 4SM -SHRA BR OVC010=

USA.gov is the U.S. government's official web portal to all federal, state and local government web resources and services.